• Join FlightAware (Why Join?)
  • Login
  • US Flag 
06:10AM EDT


 

Airport Tracker/Info


-or-


 

Live Flight TrackerFlight Track Log ✈ FIN666 ✈ 2014年 01月 03日 ✈ EKCH / CPH - EFHK / HEL

Flight Track Log - Related Links

Times and Time Zones

All times are in EST time to prevent confusion due to time zone crossing. See the FIN666 flight status page for this flight to view local times or setup timezone preferences in your user account.

Time Position Orientation Groundspeed Altitude Reporting Facility
EST Latitude Longitude Course Direction KTS MPH feet Rate Location/Type
07:26AM 55.8329 13.1000 49° Northeast  Level Estimated
07:27AM 55.9042 13.2491 50° Northeast  Level Estimated
07:28AM 55.9753 13.3988 50° Northeast  Level Estimated
07:29AM 56.0462 13.5490 50° Northeast  Level Estimated
07:30AM 56.1170 13.6997 50° Northeast  Level Estimated
07:31AM 56.1895 13.8553 50° Northeast  Level Estimated
07:32AM 56.2618 14.0115 50° Northeast  Level Estimated
07:33AM 56.3340 14.1683 50° Northeast  Level Estimated
07:34AM 56.4059 14.3256 50° Northeast  Level Estimated
07:35AM 56.4777 14.4836 51° Northeast  Level Estimated
07:36AM 56.5493 14.6421 51° Northeast  Level Estimated
07:37AM 56.6206 14.8013 51° Northeast  Level Estimated
07:38AM 56.6917 14.9610 51° Northeast  Level Estimated
07:39AM 56.7627 15.1214 51° Northeast  Level Estimated
07:40AM 56.8334 15.2823 51° Northeast  Level Estimated
07:41AM 56.9040 15.4439 51° Northeast  Level Estimated
07:42AM 56.9743 15.6061 51° Northeast  Level Estimated
07:43AM 57.0444 15.7689 52° Northeast  Level Estimated
07:44AM 57.1143 15.9323 52° Northeast  Level Estimated
07:45AM 57.1840 16.0963 52° Northeast  Level Estimated
07:46AM 57.2534 16.2609 52° Northeast  Level Estimated
07:47AM 57.3227 16.4262 52° Northeast  Level Estimated
07:48AM 57.3927 16.5945 52° Northeast  Level Estimated
07:49AM 57.4625 16.7634 52° Northeast  Level Estimated
07:50AM 57.5321 16.9329 53° Northeast  Level Estimated
07:51AM 57.6014 17.1031 53° Northeast  Level Estimated
07:52AM 57.6705 17.2740 53° Northeast  Level Estimated
07:53AM 57.7394 17.4455 53° Northeast  Level Estimated
07:54AM 57.8080 17.6176 53° Northeast  Level Estimated
07:55AM 57.8765 17.7904 53° Northeast  Level Estimated
07:56AM 57.9446 17.9639 53° Northeast  Level Estimated
07:57AM 58.0126 18.1380 54° Northeast  Level Estimated
07:58AM 58.0803 18.3128 54° Northeast  Level Estimated
07:59AM 58.1477 18.4882 54° Northeast  Level Estimated
08:00AM 58.2150 18.6643 54° Northeast  Level Estimated
08:01AM 58.2819 18.8411 54° Northeast  Level Estimated
08:02AM 58.3487 19.0186 54° Northeast  Level Estimated
08:03AM 58.4151 19.1967 54° Northeast  Level Estimated
08:04AM 58.4814 19.3755 55° Northeast  Level Estimated
08:05AM 58.5474 19.5549 55° Northeast  Level Estimated
08:06AM 58.6131 19.7351 55° Northeast  Level Estimated
08:07AM 58.6786 19.9159 55° Northeast  Level Estimated
08:08AM 58.7438 20.0974 55° Northeast  Level Estimated
08:09AM 58.8088 20.2796 55° Northeast  Level Estimated
08:10AM 58.8735 20.4624 56° Northeast  Level Estimated
08:11AM 58.9380 20.6460 56° Northeast  Level Estimated
08:12AM 59.0022 20.8302 56° Northeast  Level Estimated
08:13AM 59.0661 21.0151 56° Northeast  Level Estimated
08:14AM 59.1298 21.2007 56° Northeast  Level Estimated
08:15AM 59.1932 21.3870 56° Northeast  Level Estimated
08:16AM 59.2563 21.5740 56° Northeast  Level Estimated
08:17AM 59.3183 21.7590 57° Northeast  Level Estimated
08:18AM 59.3800 21.9447 57° Northeast  Level Estimated
08:19AM 59.4414 22.1311 57° Northeast  Level Estimated
08:20AM 59.5026 22.3182 57° Northeast  Level Estimated
08:21AM 59.5635 22.5059 57° Northeast  Level Estimated
08:22AM 59.6242 22.6943 57° Northeast  Level Estimated
08:23AM 59.6846 22.8834 58° Northeast  Level Estimated
08:24AM 59.7447 23.0732 58° Northeast  Level Estimated
08:25AM 59.8045 23.2637 58° Northeast  Level Estimated
08:26AM 59.8641 23.4548 58° Northeast  Level Estimated
08:27AM 59.9234 23.6466 58° Northeast  Level Estimated
08:28AM 59.9823 23.8391 58° Northeast  Level Estimated
08:29AM 60.0411 24.0323 59° Northeast  Level Estimated
08:30AM 60.0995 24.2262 59° Northeast  Level Estimated
08:31AM 60.1576 24.4208 59° Northeast  Level Estimated
08:32AM 60.2155 24.6160 59° Northeast  Level Estimated
08:33AM 60.2794 24.8335 59° Northeast  Level Estimated
08:34AM 60.3172 24.9633 59° Northeast  Level Estimated
08:35AM 60.3172 24.9633 37° Northeast  Level Estimated
08:36AM 60.3172 24.9633 37° Northeast  Level Estimated
08:37AM 60.3172 24.9633 37° Northeast  Level Estimated
08:38AM 60.3172 24.9633 37° Northeast  Level Estimated
08:39AM 60.3172 24.9633 37° Northeast  Level Estimated
08:40AM 60.3172 24.9633 37° Northeast  Level Estimated
08:41AM 60.3172 24.9633 37° Northeast  Level Estimated
08:42AM 60.3172 24.9633 37° Northeast  Level Estimated
08:43AM 60.3172 24.9633 37° Northeast  Level Estimated